Time;durP1;ratioP1;P1;durP2;ratioP2;P2;SDS_P1;SDS_P2;PMS_P1;PMS_P2;Temp;Humidity;BMP_temperature;BMP_pressure;BME280_temperature;BME280_humidity;BME280_pressure;Samples;Min_cycle;Max_cycle;Signal;HPM_P1;HPM_P2
2022/07/30 00:02:15;;;;;;;12.15;7.75;;;;;;;;;;5111276;27;20043;-64
2022/07/30 00:04:42;;;;;;;17.67;9.48;;;;;;;;;;5118146;27;20043;-64
2022/07/30 00:07:08;;;;;;;10.45;6.72;;;;;;;;;;5112532;27;20043;-64
2022/07/30 00:09:34;;;;;;;12.85;8.60;;;;;;;;;;5114432;27;20051;-63
2022/07/30 00:12:00;;;;;;;11.50;6.45;;;;;;;;;;5114426;27;20130;-64
2022/07/30 00:14:26;;;;;;;10.57;7.00;;;;;;;;;;5095950;27;20042;-64
2022/07/30 00:16:53;;;;;;;12.40;8.35;;;;;;;;;;5091360;27;20462;-64
2022/07/30 00:19:20;;;;;;;14.65;9.32;;;;;;;;;;5113427;27;20126;-63
2022/07/30 00:21:46;;;;;;;20.02;12.80;;;;;;;;;;5112272;27;20043;-63
2022/07/30 00:24:12;;;;;;;24.73;14.65;;;;;;;;;;5114510;27;20061;-64
2022/07/30 00:26:38;;;;;;;22.38;12.65;;;;;;;;;;5116252;27;20129;-63
2022/07/30 00:29:05;;;;;;;16.63;11.30;;;;;;;;;;5112450;27;20050;-64
2022/07/30 00:31:31;;;;;;;20.15;11.07;;;;;;;;;;5108218;27;20048;-63
2022/07/30 00:33:58;;;;;;;12.75;9.23;;;;;;;;;;5110712;27;20054;-64
2022/07/30 00:36:24;;;;;;;13.77;9.65;;;;;;;;;;5112510;27;20094;-64
2022/07/30 00:38:50;;;;;;;15.05;9.65;;;;;;;;;;5112632;27;20156;-63
2022/07/30 00:41:16;;;;;;;17.40;10.93;;;;;;;;;;5092073;27;20039;-64
2022/07/30 00:43:43;;;;;;;16.63;9.50;;;;;;;;;;5115998;27;20870;-64
2022/07/30 00:46:09;;;;;;;20.30;13.80;;;;;;;;;;5113740;27;20089;-64
2022/07/30 00:48:35;;;;;;;19.33;13.68;;;;;;;;;;5108810;27;20040;-64
2022/07/30 00:51:01;;;;;;;23.48;15.40;;;;;;;;;;5122450;27;20047;-63
2022/07/30 00:53:28;;;;;;;28.90;19.55;;;;;;;;;;5120226;27;20051;-64
2022/07/30 00:55:54;;;;;;;26.58;17.98;;;;;;;;;;5118949;27;21251;-64
2022/07/30 00:58:20;;;;;;;28.38;17.38;;;;;;;;;;5118294;27;20045;-63
2022/07/30 01:00:46;;;;;;;26.15;19.77;;;;;;;;;;5116026;27;20090;-64
2022/07/30 01:03:12;;;;;;;31.80;22.80;;;;;;;;;;5117281;27;20046;-64
2022/07/30 01:05:38;;;;;;;32.10;22.88;;;;;;;;;;5103048;27;20123;-64
2022/07/30 01:08:05;;;;;;;28.02;18.63;;;;;;;;;;5097821;27;20122;-63
2022/07/30 01:10:31;;;;;;;17.48;12.57;;;;;;;;;;5117695;27;20050;-63
2022/07/30 01:12:58;;;;;;;16.13;10.70;;;;;;;;;;5118288;27;20044;-64
2022/07/30 01:15:25;;;;;;;15.50;9.05;;;;;;;;;;5117482;27;20069;-64
2022/07/30 01:17:52;;;;;;;11.60;8.25;;;;;;;;;;5119121;27;20044;-64
2022/07/30 01:20:22;;;;;;;12.52;8.32;;;;;;;;;;5126844;27;20099;-63
2022/07/30 01:22:50;;;;;;;12.57;7.57;;;;;;;;;;5128207;27;20042;-64
2022/07/30 01:25:27;;;;;;;12.15;7.80;;;;;;;;;;5120133;27;20138;-64
2022/07/30 01:27:56;;;;;;;13.95;8.75;;;;;;;;;;5098764;27;20042;-63
2022/07/30 01:30:24;;;;;;;14.18;9.48;;;;;;;;;;5120016;27;20130;-64
2022/07/30 01:32:51;;;;;;;15.23;10.88;;;;;;;;;;5117797;27;20047;-64
2022/07/30 01:35:20;;;;;;;19.83;11.70;;;;;;;;;;5101824;27;20383;-64
2022/07/30 01:37:46;;;;;;;17.73;11.73;;;;;;;;;;5120702;27;20050;-64
2022/07/30 01:40:13;;;;;;;20.63;12.23;;;;;;;;;;5101911;27;20058;-64
2022/07/30 01:42:39;;;;;;;19.75;13.90;;;;;;;;;;5120183;27;20079;-64
2022/07/30 01:45:07;;;;;;;16.20;11.25;;;;;;;;;;5116583;27;20058;-63
2022/07/30 01:47:34;;;;;;;13.20;9.93;;;;;;;;;;5117560;27;20051;-64
2022/07/30 01:50:02;;;;;;;13.85;7.40;;;;;;;;;;5113528;27;20054;-64
2022/07/30 01:52:30;;;;;;;9.27;5.20;;;;;;;;;;5095026;27;20036;-64
2022/07/30 01:54:58;;;;;;;7.28;5.90;;;;;;;;;;5102357;27;20050;-64
2022/07/30 01:57:25;;;;;;;7.32;5.30;;;;;;;;;;5117837;27;20043;-63
2022/07/30 01:59:54;;;;;;;5.90;3.78;;;;;;;;;;5099067;27;20058;-63
2022/07/30 02:02:20;;;;;;;5.72;4.20;;;;;;;;;;5109785;27;20051;-63
2022/07/30 02:04:46;;;;;;;7.82;5.38;;;;;;;;;;5102606;27;20149;-64
2022/07/30 02:07:16;;;;;;;7.00;3.92;;;;;;;;;;5120458;27;22542;-64
2022/07/30 02:09:47;;;;;;;7.00;5.22;;;;;;;;;;5116098;27;20082;-64
2022/07/30 02:12:27;;;;;;;8.10;5.57;;;;;;;;;;5116720;27;21543;-64
2022/07/30 02:14:58;;;;;;;9.35;6.00;;;;;;;;;;5119789;27;20047;-64
2022/07/30 02:17:28;;;;;;;9.15;7.22;;;;;;;;;;5127816;27;20490;-63
2022/07/30 02:19:56;;;;;;;11.02;8.45;;;;;;;;;;5127255;27;20536;-63
2022/07/30 02:22:24;;;;;;;13.05;6.93;;;;;;;;;;5115934;27;20058;-64
2022/07/30 02:24:51;;;;;;;7.30;6.00;;;;;;;;;;5117902;27;20045;-64
2022/07/30 02:27:21;;;;;;;10.02;6.38;;;;;;;;;;5100209;27;20050;-64
2022/07/30 02:29:48;;;;;;;7.22;5.03;;;;;;;;;;5113225;27;20490;-64
2022/07/30 02:32:17;;;;;;;6.95;5.18;;;;;;;;;;5121557;27;20046;-64
2022/07/30 02:34:44;;;;;;;6.25;5.07;;;;;;;;;;5107178;27;20054;-63
2022/07/30 02:37:11;;;;;;;9.35;5.22;;;;;;;;;;5115819;27;20093;-63
2022/07/30 02:39:38;;;;;;;6.55;4.30;;;;;;;;;;5118531;27;20054;-64
2022/07/30 02:42:05;;;;;;;6.38;4.93;;;;;;;;;;5115131;27;20494;-63
2022/07/30 02:44:32;;;;;;;23.17;6.13;;;;;;;;;;5119662;27;20039;-64
2022/07/30 02:46:59;;;;;;;131.95;10.80;;;;;;;;;;5121296;27;20043;-64
2022/07/30 02:49:26;;;;;;;37.10;8.85;;;;;;;;;;5114905;27;20058;-64
2022/07/30 02:51:54;;;;;;;33.10;13.45;;;;;;;;;;5114897;27;20043;-64
2022/07/30 02:54:20;;;;;;;31.70;11.25;;;;;;;;;;5112935;27;20043;-64
2022/07/30 02:56:47;;;;;;;10.23;9.13;;;;;;;;;;5113581;27;20047;-64
2022/07/30 02:59:14;;;;;;;10.55;8.73;;;;;;;;;;5118243;27;20107;-64
2022/07/30 03:01:41;;;;;;;11.07;8.30;;;;;;;;;;5115380;27;20047;-64
2022/07/30 03:04:07;;;;;;;8.40;7.50;;;;;;;;;;5115550;27;20231;-64
2022/07/30 03:06:34;;;;;;;8.65;7.10;;;;;;;;;;5101806;27;20043;-64
2022/07/30 03:09:01;;;;;;;8.25;7.07;;;;;;;;;;5106230;27;20115;-64
2022/07/30 03:11:29;;;;;;;7.97;6.78;;;;;;;;;;5117996;27;20117;-64
2022/07/30 03:13:55;;;;;;;8.65;6.65;;;;;;;;;;5116093;27;21941;-64
2022/07/30 03:16:22;;;;;;;9.52;6.63;;;;;;;;;;5118937;27;20545;-64
2022/07/30 03:18:49;;;;;;;9.20;7.20;;;;;;;;;;5116258;27;20027;-63
2022/07/30 03:21:16;;;;;;;9.95;7.00;;;;;;;;;;5118234;27;20039;-64
2022/07/30 03:23:43;;;;;;;7.85;5.65;;;;;;;;;;5106001;27;20130;-63
2022/07/30 03:26:11;;;;;;;18.75;7.47;;;;;;;;;;5109642;27;20054;-64
2022/07/30 03:28:38;;;;;;;39.40;8.30;;;;;;;;;;5115874;27;20356;-64
2022/07/30 03:31:05;;;;;;;69.63;9.30;;;;;;;;;;5112185;27;20104;-64
2022/07/30 03:33:32;;;;;;;23.63;6.95;;;;;;;;;;5122836;27;21634;-64
2022/07/30 03:35:59;;;;;;;10.18;6.18;;;;;;;;;;5119120;27;20038;-64
2022/07/30 03:38:25;;;;;;;29.90;6.80;;;;;;;;;;5117540;27;20475;-64
2022/07/30 03:40:52;;;;;;;48.70;6.43;;;;;;;;;;5117750;27;22128;-64
2022/07/30 03:43:18;;;;;;;74.30;7.50;;;;;;;;;;5119651;27;20039;-64
2022/07/30 03:45:45;;;;;;;7.60;4.68;;;;;;;;;;5114928;27;20045;-63
2022/07/30 03:48:12;;;;;;;4.95;3.90;;;;;;;;;;5099902;27;20043;-64
2022/07/30 03:50:39;;;;;;;5.30;3.65;;;;;;;;;;5127864;27;20038;-63
2022/07/30 03:53:06;;;;;;;4.20;3.40;;;;;;;;;;5127875;27;20078;-64
2022/07/30 03:55:33;;;;;;;6.18;4.15;;;;;;;;;;5101473;27;20058;-63
2022/07/30 03:58:00;;;;;;;6.15;4.32;;;;;;;;;;5103118;27;20213;-63
2022/07/30 04:00:26;;;;;;;4.47;3.55;;;;;;;;;;5124011;27;20039;-63
2022/07/30 04:02:53;;;;;;;4.05;3.10;;;;;;;;;;5102892;27;20051;-64
2022/07/30 04:05:19;;;;;;;3.85;2.88;;;;;;;;;;5119524;27;21739;-63
2022/07/30 04:07:45;;;;;;;4.00;3.05;;;;;;;;;;5119039;27;20103;-63
2022/07/30 04:10:12;;;;;;;22.63;3.35;;;;;;;;;;5120118;27;20054;-63
2022/07/30 04:12:38;;;;;;;5.10;3.65;;;;;;;;;;5122182;27;20071;-64
2022/07/30 04:15:05;;;;;;;3.90;3.03;;;;;;;;;;5099246;27;20039;-63
2022/07/30 04:17:32;;;;;;;5.15;2.50;;;;;;;;;;5118812;27;20425;-63
2022/07/30 04:20:02;;;;;;;3.70;2.70;;;;;;;;;;5117322;27;20169;-64
2022/07/30 04:22:30;;;;;;;14.70;2.70;;;;;;;;;;5119368;27;20460;-63
2022/07/30 04:24:56;;;;;;;5.15;2.90;;;;;;;;;;5094136;27;20051;-64
2022/07/30 04:27:24;;;;;;;5.03;2.10;;;;;;;;;;5101343;27;20070;-63
2022/07/30 04:29:51;;;;;;;3.90;2.53;;;;;;;;;;5116364;27;20070;-63
2022/07/30 04:32:18;;;;;;;3.40;2.47;;;;;;;;;;5118029;27;20060;-64
2022/07/30 04:34:46;;;;;;;5.15;2.33;;;;;;;;;;5121990;27;20164;-63
2022/07/30 04:37:12;;;;;;;4.60;2.00;;;;;;;;;;5119900;27;20064;-64
2022/07/30 04:39:38;;;;;;;3.80;2.72;;;;;;;;;;5102717;27;20467;-63
2022/07/30 04:42:04;;;;;;;5.07;2.75;;;;;;;;;;5127400;27;20119;-64
2022/07/30 04:44:30;;;;;;;4.88;3.38;;;;;;;;;;5117589;27;20047;-63
2022/07/30 04:46:56;;;;;;;6.07;2.92;;;;;;;;;;5118290;27;20054;-63
2022/07/30 04:49:23;;;;;;;5.18;3.47;;;;;;;;;;5101614;27;20103;-63
2022/07/30 04:51:49;;;;;;;6.07;4.32;;;;;;;;;;5119966;27;20515;-64
2022/07/30 04:54:16;;;;;;;7.30;4.40;;;;;;;;;;5118056;27;20058;-64
2022/07/30 04:56:43;;;;;;;6.88;5.05;;;;;;;;;;5117055;27;20047;-63
2022/07/30 04:59:10;;;;;;;8.82;6.35;;;;;;;;;;5125262;27;20082;-64
2022/07/30 05:01:36;;;;;;;7.22;6.03;;;;;;;;;;5093162;27;20414;-64
2022/07/30 05:04:05;;;;;;;8.00;6.57;;;;;;;;;;5112842;27;20043;-64
2022/07/30 05:06:31;;;;;;;11.93;6.95;;;;;;;;;;5119131;27;20053;-63
2022/07/30 05:08:58;;;;;;;11.27;6.88;;;;;;;;;;5116380;27;20371;-64
2022/07/30 05:11:24;;;;;;;10.93;7.22;;;;;;;;;;5117291;27;21063;-63
2022/07/30 05:13:50;;;;;;;9.13;6.72;;;;;;;;;;5119557;27;20035;-64
2022/07/30 05:16:17;;;;;;;7.75;6.70;;;;;;;;;;5120717;27;20043;-63
2022/07/30 05:18:44;;;;;;;9.70;6.75;;;;;;;;;;5118948;27;20055;-63
2022/07/30 05:21:11;;;;;;;7.50;6.38;;;;;;;;;;5114500;27;21016;-64
2022/07/30 05:23:37;;;;;;;12.65;8.20;;;;;;;;;;5115494;27;20035;-64
2022/07/30 05:26:03;;;;;;;10.73;7.03;;;;;;;;;;5116284;27;20107;-64
2022/07/30 05:28:30;;;;;;;10.07;7.47;;;;;;;;;;5118233;27;20039;-64
2022/07/30 05:30:56;;;;;;;9.55;7.57;;;;;;;;;;5126241;27;20043;-64
2022/07/30 05:33:22;;;;;;;10.73;8.20;;;;;;;;;;5116110;27;20034;-64
2022/07/30 05:35:49;;;;;;;11.88;8.73;;;;;;;;;;5112174;27;20411;-64
2022/07/30 05:38:17;;;;;;;16.48;9.93;;;;;;;;;;5118471;27;21231;-63
2022/07/30 05:40:45;;;;;;;13.90;9.80;;;;;;;;;;5113657;27;20081;-64
2022/07/30 05:43:11;;;;;;;15.98;11.18;;;;;;;;;;5123353;27;20043;-64
2022/07/30 05:45:37;;;;;;;15.98;11.00;;;;;;;;;;5120318;27;20129;-64
2022/07/30 05:48:04;;;;;;;16.08;11.90;;;;;;;;;;5122358;27;20039;-63
2022/07/30 05:50:30;;;;;;;16.77;11.88;;;;;;;;;;5125982;27;20095;-64
2022/07/30 05:52:57;;;;;;;23.52;13.25;;;;;;;;;;5123734;27;20051;-64
2022/07/30 05:55:23;;;;;;;21.58;13.63;;;;;;;;;;5120826;27;20493;-64
2022/07/30 05:57:49;;;;;;;21.90;13.23;;;;;;;;;;5119136;27;20043;-64
2022/07/30 06:00:16;;;;;;;20.45;13.00;;;;;;;;;;5118201;27;20047;-63
2022/07/30 06:02:42;;;;;;;24.73;13.27;;;;;;;;;;5100308;27;20058;-64
2022/07/30 06:05:08;;;;;;;14.95;10.38;;;;;;;;;;5117974;27;22109;-64
2022/07/30 06:07:34;;;;;;;22.00;11.93;;;;;;;;;;5121385;27;20122;-64
2022/07/30 06:10:01;;;;;;;24.20;10.55;;;;;;;;;;5112451;27;20050;-64
2022/07/30 06:12:27;;;;;;;31.48;12.00;;;;;;;;;;5114103;27;20043;-64
2022/07/30 06:14:53;;;;;;;21.45;11.13;;;;;;;;;;5113178;27;20039;-64
2022/07/30 06:17:19;;;;;;;19.83;10.90;;;;;;;;;;5118046;27;20043;-64
2022/07/30 06:19:46;;;;;;;22.52;10.55;;;;;;;;;;5110689;27;20069;-62
2022/07/30 06:22:12;;;;;;;24.85;10.93;;;;;;;;;;5098059;27;20044;-65
2022/07/30 06:24:38;;;;;;;20.75;10.75;;;;;;;;;;5125192;27;20052;-64
2022/07/30 06:27:04;;;;;;;22.27;11.50;;;;;;;;;;5116700;27;20827;-65
2022/07/30 06:29:31;;;;;;;21.63;10.43;;;;;;;;;;5123765;27;20051;-65
2022/07/30 06:31:57;;;;;;;18.38;11.48;;;;;;;;;;5118068;27;20039;-64
2022/07/30 06:34:23;;;;;;;22.70;11.57;;;;;;;;;;5123521;27;20067;-70
2022/07/30 06:36:49;;;;;;;20.60;11.13;;;;;;;;;;5108297;27;20572;-65
2022/07/30 06:39:16;;;;;;;22.85;10.38;;;;;;;;;;5109380;27;20517;-64
2022/07/30 06:41:42;;;;;;;16.52;8.85;;;;;;;;;;5107722;27;20043;-64
2022/07/30 06:44:08;;;;;;;17.80;9.48;;;;;;;;;;5120931;27;21035;-64
2022/07/30 06:46:35;;;;;;;19.00;8.52;;;;;;;;;;5120133;27;20190;-64
2022/07/30 06:49:01;;;;;;;18.55;9.85;;;;;;;;;;5126307;27;20074;-65
2022/07/30 06:51:27;;;;;;;18.92;9.65;;;;;;;;;;5121516;27;20517;-65
2022/07/30 06:53:54;;;;;;;25.10;9.60;;;;;;;;;;5123261;27;20115;-65
2022/07/30 06:56:20;;;;;;;20.27;10.02;;;;;;;;;;5108638;27;20070;-65
2022/07/30 06:58:46;;;;;;;20.48;9.32;;;;;;;;;;5127571;27;20053;-65
2022/07/30 07:01:12;;;;;;;19.92;9.30;;;;;;;;;;5130304;27;20046;-65
2022/07/30 07:03:39;;;;;;;19.08;9.57;;;;;;;;;;5131396;27;20043;-65
2022/07/30 07:06:05;;;;;;;14.18;8.30;;;;;;;;;;5127355;27;20039;-65
2022/07/30 07:08:31;;;;;;;21.55;9.18;;;;;;;;;;5132108;27;20113;-65
2022/07/30 07:10:57;;;;;;;18.13;8.10;;;;;;;;;;5132743;27;20454;-65
2022/07/30 07:13:23;;;;;;;14.10;7.63;;;;;;;;;;5128692;27;20401;-65
2022/07/30 07:15:49;;;;;;;14.93;7.80;;;;;;;;;;5110657;27;20062;-65
2022/07/30 07:18:16;;;;;;;15.75;6.75;;;;;;;;;;5129554;27;20043;-65
2022/07/30 07:20:42;;;;;;;14.55;7.07;;;;;;;;;;5129841;27;20043;-65
2022/07/30 07:23:08;;;;;;;17.15;6.82;;;;;;;;;;5128276;27;20050;-65
2022/07/30 07:25:35;;;;;;;16.17;7.57;;;;;;;;;;5128643;27;20125;-65
2022/07/30 07:28:01;;;;;;;15.40;7.72;;;;;;;;;;5110524;27;20043;-65
2022/07/30 07:30:27;;;;;;;12.65;6.53;;;;;;;;;;5134084;27;20402;-65
2022/07/30 07:32:54;;;;;;;16.00;7.90;;;;;;;;;;5115362;27;20343;-64
2022/07/30 07:35:20;;;;;;;21.88;7.40;;;;;;;;;;5137899;27;20042;-65
2022/07/30 07:37:46;;;;;;;13.73;6.70;;;;;;;;;;5138452;27;20122;-65
2022/07/30 07:40:12;;;;;;;12.35;5.30;;;;;;;;;;5132326;27;20104;-65
2022/07/30 07:42:38;;;;;;;15.30;6.38;;;;;;;;;;5133778;27;20112;-64
2022/07/30 07:45:05;;;;;;;9.95;5.78;;;;;;;;;;5139066;27;20103;-65
2022/07/30 07:47:31;;;;;;;13.25;5.82;;;;;;;;;;5135493;27;20050;-64
2022/07/30 07:49:57;;;;;;;11.65;5.55;;;;;;;;;;5140527;27;20498;-65
2022/07/30 07:52:23;;;;;;;9.18;5.72;;;;;;;;;;5138192;27;20057;-64
2022/07/30 07:54:49;;;;;;;18.30;5.68;;;;;;;;;;5141353;27;20477;-65
2022/07/30 07:57:16;;;;;;;13.77;4.60;;;;;;;;;;5136583;27;20100;-65
2022/07/30 07:59:42;;;;;;;13.13;5.35;;;;;;;;;;5130869;27;20383;-64
2022/07/30 08:02:08;;;;;;;16.40;6.10;;;;;;;;;;5130333;27;20047;-64
2022/07/30 08:04:34;;;;;;;12.27;5.03;;;;;;;;;;5124518;27;20042;-65
2022/07/30 08:07:00;;;;;;;9.85;4.15;;;;;;;;;;5122983;27;20061;-64
2022/07/30 08:09:27;;;;;;;9.25;4.20;;;;;;;;;;5102381;27;20054;-64
2022/07/30 08:11:53;;;;;;;13.18;5.07;;;;;;;;;;5125415;27;20514;-63
2022/07/30 08:14:19;;;;;;;10.32;5.05;;;;;;;;;;5130318;27;20700;-65
2022/07/30 08:16:45;;;;;;;11.13;4.88;;;;;;;;;;5126230;27;20415;-65
2022/07/30 08:19:11;;;;;;;10.60;5.07;;;;;;;;;;5120307;27;20136;-64
2022/07/30 08:21:38;;;;;;;11.63;5.07;;;;;;;;;;5128883;27;20052;-64
2022/07/30 08:24:04;;;;;;;7.40;4.07;;;;;;;;;;5129145;27;20086;-65
2022/07/30 08:26:30;;;;;;;9.23;4.93;;;;;;;;;;5129284;27;20043;-64
2022/07/30 08:28:57;;;;;;;16.73;4.47;;;;;;;;;;5127403;27;20035;-65
2022/07/30 08:31:23;;;;;;;12.38;5.28;;;;;;;;;;5132457;27;20039;-65
2022/07/30 08:33:49;;;;;;;12.65;4.03;;;;;;;;;;5129022;27;20043;-65
2022/07/30 08:36:15;;;;;;;12.20;4.28;;;;;;;;;;5137971;27;20039;-65
2022/07/30 08:38:42;;;;;;;13.25;4.15;;;;;;;;;;5134753;27;20118;-65
2022/07/30 08:41:08;;;;;;;7.38;4.15;;;;;;;;;;5135908;27;20054;-65
2022/07/30 08:43:35;;;;;;;11.27;3.83;;;;;;;;;;5105802;27;20051;-65
2022/07/30 08:46:02;;;;;;;8.63;3.63;;;;;;;;;;5087359;27;20064;-65
2022/07/30 08:48:29;;;;;;;9.93;3.83;;;;;;;;;;5126509;27;20058;-65
2022/07/30 08:50:55;;;;;;;14.50;4.10;;;;;;;;;;5125620;27;20091;-65
2022/07/30 08:53:21;;;;;;;10.60;3.53;;;;;;;;;;5103791;27;20035;-65
2022/07/30 08:55:48;;;;;;;9.82;4.00;;;;;;;;;;5123739;27;20039;-65
2022/07/30 08:58:28;;;;;;;13.55;3.60;;;;;;;;;;5119086;27;20050;-65
2022/07/30 09:00:54;;;;;;;13.88;4.07;;;;;;;;;;5119214;27;20043;-65
2022/07/30 09:03:21;;;;;;;11.15;4.47;;;;;;;;;;5118350;27;20032;-65
2022/07/30 09:05:47;;;;;;;12.05;3.75;;;;;;;;;;5120771;27;20038;-65
2022/07/30 09:08:13;;;;;;;8.73;3.67;;;;;;;;;;5124808;27;20043;-65
2022/07/30 09:10:41;;;;;;;10.75;3.60;;;;;;;;;;5125512;27;20513;-65
2022/07/30 09:13:22;;;;;;;9.38;3.25;;;;;;;;;;5122931;27;20067;-65
2022/07/30 09:15:49;;;;;;;9.00;3.25;;;;;;;;;;5125093;27;20087;-65
2022/07/30 09:18:25;;;;;;;9.40;3.17;;;;;;;;;;5107055;27;20137;-65
2022/07/30 09:20:51;;;;;;;9.13;3.15;;;;;;;;;;5123723;27;20118;-65
2022/07/30 09:23:17;;;;;;;14.43;3.85;;;;;;;;;;5119832;27;20852;-65
2022/07/30 09:25:45;;;;;;;8.65;3.58;;;;;;;;;;5122262;27;20042;-66
2022/07/30 09:28:12;;;;;;;9.93;3.97;;;;;;;;;;5121886;27;20054;-64
2022/07/30 09:30:51;;;;;;;8.60;3.47;;;;;;;;;;5124909;27;20118;-63
2022/07/30 09:33:32;;;;;;;17.73;4.15;;;;;;;;;;5122092;27;20147;-64
2022/07/30 09:35:59;;;;;;;11.98;4.28;;;;;;;;;;5103088;27;20162;-63
2022/07/30 09:38:25;;;;;;;9.18;4.05;;;;;;;;;;5120257;27;20099;-63
2022/07/30 09:40:52;;;;;;;10.05;4.10;;;;;;;;;;5123440;27;20035;-64
2022/07/30 09:43:18;;;;;;;11.00;3.80;;;;;;;;;;5108881;27;20058;-64
2022/07/30 09:45:51;;;;;;;7.55;3.40;;;;;;;;;;5127152;27;20362;-66
2022/07/30 09:48:21;;;;;;;6.43;2.95;;;;;;;;;;5123309;27;21731;-64
2022/07/30 09:50:48;;;;;;;10.68;3.33;;;;;;;;;;5109917;27;20064;-63
2022/07/30 09:53:14;;;;;;;9.18;3.38;;;;;;;;;;5128304;27;20054;-63
2022/07/30 09:55:41;;;;;;;10.25;3.97;;;;;;;;;;5129564;27;20457;-64
2022/07/30 09:58:07;;;;;;;10.13;4.10;;;;;;;;;;5125831;27;20046;-63
2022/07/30 10:00:35;;;;;;;10.80;3.67;;;;;;;;;;5123532;27;20043;-63
2022/07/30 10:03:02;;;;;;;8.43;3.35;;;;;;;;;;5123366;27;20142;-63
2022/07/30 10:05:28;;;;;;;9.68;3.25;;;;;;;;;;5125419;27;20168;-63
2022/07/30 10:07:56;;;;;;;5.68;2.80;;;;;;;;;;5120326;27;20074;-63
2022/07/30 10:10:23;;;;;;;8.05;3.78;;;;;;;;;;5124984;27;20043;-64
2022/07/30 10:12:52;;;;;;;9.55;3.22;;;;;;;;;;5129091;27;20042;-63
2022/07/30 10:15:19;;;;;;;7.35;2.90;;;;;;;;;;5123689;27;20055;-63
2022/07/30 10:17:46;;;;;;;7.57;2.80;;;;;;;;;;5101099;27;20054;-63
2022/07/30 10:20:13;;;;;;;5.35;2.47;;;;;;;;;;5129686;27;20058;-63
2022/07/30 10:22:40;;;;;;;10.05;3.17;;;;;;;;;;5134656;27;20159;-65
2022/07/30 10:25:06;;;;;;;7.80;2.95;;;;;;;;;;5114227;27;20391;-64
2022/07/30 10:27:33;;;;;;;9.48;3.33;;;;;;;;;;5127644;27;20130;-64
2022/07/30 10:29:59;;;;;;;8.20;2.78;;;;;;;;;;5107936;27;20049;-64
2022/07/30 10:32:26;;;;;;;7.43;2.83;;;;;;;;;;5125728;27;20039;-65
2022/07/30 10:34:53;;;;;;;7.60;2.45;;;;;;;;;;5122646;27;20485;-63
2022/07/30 10:37:20;;;;;;;6.43;2.55;;;;;;;;;;5122431;27;20050;-64
2022/07/30 10:39:52;;;;;;;6.53;2.30;;;;;;;;;;5125806;27;20103;-64
2022/07/30 10:42:50;;;;;;;8.07;2.30;;;;;;;;;;5114053;27;20039;-64
2022/07/30 10:45:23;;;;;;;7.82;2.47;;;;;;;;;;5130259;27;20517;-64
2022/07/30 10:47:50;;;;;;;6.13;2.08;;;;;;;;;;5123855;27;20525;-64
2022/07/30 10:50:18;;;;;;;7.35;2.38;;;;;;;;;;5124422;27;20038;-64
2022/07/30 10:52:45;;;;;;;8.05;2.28;;;;;;;;;;5131857;27;20051;-63
2022/07/30 10:55:18;;;;;;;7.47;2.10;;;;;;;;;;5128863;27;20062;-64
2022/07/30 10:58:02;;;;;;;7.97;1.98;;;;;;;;;;5125080;27;20104;-64
2022/07/30 11:00:30;;;;;;;10.20;2.10;;;;;;;;;;5131820;27;20098;-64
2022/07/30 11:03:13;;;;;;;5.18;2.13;;;;;;;;;;5122302;27;20114;-65
2022/07/30 11:05:39;;;;;;;7.10;2.00;;;;;;;;;;5127295;27;20047;-64
2022/07/30 11:08:27;;;;;;;6.60;2.20;;;;;;;;;;5125264;27;20501;-69
2022/07/30 11:10:53;;;;;;;6.22;2.30;;;;;;;;;;5127988;27;20435;-64
2022/07/30 11:13:39;;;;;;;6.32;2.08;;;;;;;;;;5104194;27;20051;-64
2022/07/30 11:16:05;;;;;;;9.43;2.03;;;;;;;;;;5129893;27;20122;-65
2022/07/30 11:18:51;;;;;;;11.00;2.10;;;;;;;;;;5127694;27;20082;-64
2022/07/30 11:21:19;;;;;;;5.95;1.80;;;;;;;;;;5128408;27;20058;-64
2022/07/30 11:23:45;;;;;;;5.05;1.70;;;;;;;;;;5095333;27;20132;-64
2022/07/30 11:26:32;;;;;;;5.63;1.77;;;;;;;;;;5129241;27;20043;-64
2022/07/30 11:28:58;;;;;;;9.35;1.95;;;;;;;;;;5124197;27;20244;-64
2022/07/30 11:31:25;;;;;;;8.40;1.88;;;;;;;;;;5125506;27;20071;-64
2022/07/30 11:33:53;;;;;;;8.35;1.75;;;;;;;;;;5101459;27;20046;-64
2022/07/30 11:36:19;;;;;;;7.68;2.55;;;;;;;;;;5124294;27;20058;-64
2022/07/30 11:38:55;;;;;;;7.68;2.20;;;;;;;;;;5123323;27;20041;-64
2022/07/30 11:41:22;;;;;;;8.02;2.00;;;;;;;;;;5126755;27;20070;-64
2022/07/30 11:43:48;;;;;;;6.28;1.98;;;;;;;;;;5127545;27;20175;-64
2022/07/30 11:46:18;;;;;;;9.80;1.50;;;;;;;;;;5127898;27;20042;-64
2022/07/30 11:48:56;;;;;;;8.07;1.98;;;;;;;;;;5122748;27;20074;-64
2022/07/30 11:51:22;;;;;;;6.65;1.80;;;;;;;;;;5126197;27;20054;-64
2022/07/30 11:54:02;;;;;;;10.13;1.92;;;;;;;;;;5129165;27;20658;-64
2022/07/30 11:56:28;;;;;;;6.22;1.80;;;;;;;;;;5109201;27;20047;-64
2022/07/30 11:59:03;;;;;;;7.05;1.85;;;;;;;;;;5128688;27;20380;-64
2022/07/30 12:01:30;;;;;;;6.22;1.35;;;;;;;;;;5123976;27;20077;-64
2022/07/30 12:03:57;;;;;;;5.38;1.90;;;;;;;;;;5105373;27;20050;-64
2022/07/30 12:06:23;;;;;;;5.93;1.70;;;;;;;;;;5106257;27;20138;-64
2022/07/30 12:08:50;;;;;;;6.65;1.60;;;;;;;;;;5107344;27;20055;-64
2022/07/30 12:11:16;;;;;;;6.90;1.85;;;;;;;;;;5117868;27;20383;-64
2022/07/30 12:13:43;;;;;;;12.88;2.22;;;;;;;;;;5118549;27;20027;-64
2022/07/30 12:16:10;;;;;;;4.45;1.73;;;;;;;;;;5127046;27;20714;-64
2022/07/30 12:18:37;;;;;;;5.22;1.75;;;;;;;;;;5129237;27;21696;-66
2022/07/30 12:21:14;;;;;;;7.53;1.83;;;;;;;;;;5128679;27;20191;-64
2022/07/30 12:23:42;;;;;;;4.53;1.55;;;;;;;;;;5123876;27;20050;-64
2022/07/30 12:26:09;;;;;;;4.30;1.67;;;;;;;;;;5124354;27;20031;-64
2022/07/30 12:28:35;;;;;;;4.50;1.20;;;;;;;;;;5116346;27;20451;-64
2022/07/30 12:31:03;;;;;;;12.07;2.03;;;;;;;;;;5138099;27;20043;-64
2022/07/30 12:33:29;;;;;;;6.88;1.48;;;;;;;;;;5130689;27;20125;-64
2022/07/30 12:35:58;;;;;;;3.47;1.00;;;;;;;;;;5128510;27;20043;-64
2022/07/30 12:38:25;;;;;;;5.03;1.30;;;;;;;;;;5128259;27;20047;-64
2022/07/30 12:40:52;;;;;;;6.20;1.67;;;;;;;;;;5128817;27;20090;-64
2022/07/30 12:43:18;;;;;;;6.88;1.50;;;;;;;;;;5103459;27;20043;-64
2022/07/30 12:45:44;;;;;;;5.45;1.20;;;;;;;;;;5136336;27;20062;-64
2022/07/30 12:48:11;;;;;;;8.80;1.75;;;;;;;;;;5135239;27;20095;-64
2022/07/30 12:50:37;;;;;;;5.07;1.42;;;;;;;;;;5131884;27;20046;-64
2022/07/30 12:53:03;;;;;;;4.25;1.25;;;;;;;;;;5132209;27;20087;-64
2022/07/30 12:55:31;;;;;;;6.63;1.40;;;;;;;;;;5123003;27;20111;-64
2022/07/30 12:57:59;;;;;;;11.55;1.50;;;;;;;;;;5125320;27;20031;-64
2022/07/30 13:00:27;;;;;;;4.13;1.10;;;;;;;;;;5128118;27;21859;-64
2022/07/30 13:02:53;;;;;;;4.15;1.35;;;;;;;;;;5128261;27;20050;-64
2022/07/30 13:05:20;;;;;;;4.35;1.48;;;;;;;;;;5125657;27;20192;-64
2022/07/30 13:07:56;;;;;;;4.32;1.30;;;;;;;;;;5126191;27;21716;-64
2022/07/30 13:10:22;;;;;;;4.15;1.20;;;;;;;;;;5109779;27;21517;-65
2022/07/30 13:12:49;;;;;;;5.10;1.67;;;;;;;;;;5132307;27;20043;-71
2022/07/30 13:15:17;;;;;;;3.92;1.23;;;;;;;;;;5127866;27;20128;-63
2022/07/30 13:17:43;;;;;;;5.43;1.13;;;;;;;;;;5126887;27;20939;-64
2022/07/30 13:20:10;;;;;;;4.55;1.10;;;;;;;;;;5121488;27;20492;-64
2022/07/30 13:22:36;;;;;;;4.63;1.20;;;;;;;;;;5127117;27;20043;-63
2022/07/30 13:25:02;;;;;;;5.32;1.30;;;;;;;;;;5129437;27;20120;-64
2022/07/30 13:27:28;;;;;;;3.70;1.00;;;;;;;;;;5129769;27;20071;-63
2022/07/30 13:29:54;;;;;;;3.22;1.08;;;;;;;;;;5129729;27;20043;-63
2022/07/30 13:32:20;;;;;;;4.03;1.17;;;;;;;;;;5127540;27;20457;-63
2022/07/30 13:34:47;;;;;;;5.18;1.38;;;;;;;;;;5116282;27;20069;-66
2022/07/30 13:37:14;;;;;;;2.65;1.10;;;;;;;;;;5132159;27;20054;-64
2022/07/30 13:39:40;;;;;;;4.65;1.10;;;;;;;;;;5100873;27;20535;-64
2022/07/30 13:42:06;;;;;;;5.72;1.00;;;;;;;;;;5138280;27;20038;-64
2022/07/30 13:44:32;;;;;;;4.53;1.15;;;;;;;;;;5124486;27;20050;-63
2022/07/30 13:46:58;;;;;;;2.45;0.80;;;;;;;;;;5128783;27;20062;-64
2022/07/30 13:49:24;;;;;;;4.38;1.00;;;;;;;;;;5109832;27;20047;-64
2022/07/30 13:51:51;;;;;;;2.88;0.75;;;;;;;;;;5128641;27;20398;-63
2022/07/30 13:54:17;;;;;;;6.55;0.90;;;;;;;;;;5123970;27;20035;-64
2022/07/30 13:56:43;;;;;;;5.55;1.27;;;;;;;;;;5132746;27;20043;-64
2022/07/30 13:59:09;;;;;;;3.88;1.00;;;;;;;;;;5142877;27;20039;-64
2022/07/30 14:01:35;;;;;;;3.00;0.90;;;;;;;;;;5133421;27;20038;-63
2022/07/30 14:04:01;;;;;;;3.63;0.80;;;;;;;;;;5129019;27;20042;-63
2022/07/30 14:06:28;;;;;;;2.85;1.00;;;;;;;;;;5134210;27;20046;-63
2022/07/30 14:08:54;;;;;;;4.57;1.10;;;;;;;;;;5133843;27;20031;-64
2022/07/30 14:11:20;;;;;;;2.58;0.93;;;;;;;;;;5132233;27;20452;-64
2022/07/30 14:13:46;;;;;;;5.63;1.30;;;;;;;;;;5133973;27;20095;-64
2022/07/30 14:16:13;;;;;;;3.03;1.05;;;;;;;;;;5138786;27;20065;-64
2022/07/30 14:18:39;;;;;;;7.38;1.20;;;;;;;;;;5121876;27;20047;-64
2022/07/30 14:21:05;;;;;;;2.67;0.73;;;;;;;;;;5117724;27;20038;-64
2022/07/30 14:23:31;;;;;;;5.50;1.42;;;;;;;;;;5136187;27;20046;-64
2022/07/30 14:25:57;;;;;;;3.67;1.00;;;;;;;;;;5134586;27;20047;-76
2022/07/30 14:28:24;;;;;;;3.13;1.00;;;;;;;;;;5089885;27;20054;-64
2022/07/30 14:30:50;;;;;;;6.57;1.15;;;;;;;;;;5123694;27;20071;-64
2022/07/30 14:33:16;;;;;;;6.72;1.30;;;;;;;;;;5127188;27;20035;-64
2022/07/30 14:35:42;;;;;;;4.97;0.95;;;;;;;;;;5128407;27;20098;-64
2022/07/30 14:38:09;;;;;;;3.38;1.00;;;;;;;;;;5126008;27;20035;-64